createdAt,value
2022-11-09T00:00:00.089Z,0.44
2022-11-09T00:01:00.072Z,0.28
2022-11-09T00:02:00.081Z,0.17
2022-11-09T00:03:00.079Z,0.28
2022-11-09T00:04:00.125Z,0.28
2022-11-09T00:05:00.069Z,0
2022-11-09T00:06:00.081Z,-0.28
2022-11-09T00:07:00.153Z,-0.17
2022-11-09T00:08:00.100Z,-0.28
2022-11-09T00:09:04.250Z,-0.56
2022-11-09T00:10:00.173Z,-0.67
2022-11-09T00:11:00.070Z,-0.67
2022-11-09T00:12:00.079Z,-0.67
2022-11-09T00:13:00.081Z,-0.67
2022-11-09T00:14:00.090Z,-0.83
2022-11-09T00:15:00.102Z,-0.67
2022-11-09T00:16:00.071Z,-0.83
2022-11-09T00:17:00.096Z,-0.56
2022-11-09T00:18:00.083Z,-0.67
2022-11-09T00:19:00.088Z,-0.39
2022-11-09T00:20:00.117Z,-0.39
2022-11-09T00:21:00.085Z,-0.28
2022-11-09T00:22:00.091Z,-0.28
2022-11-09T00:23:00.088Z,-0.17
2022-11-09T00:24:00.105Z,-0.56
2022-11-09T00:25:00.081Z,-0.17
2022-11-09T00:26:00.087Z,-0.39
2022-11-09T00:27:00.087Z,-0.28
2022-11-09T00:28:00.093Z,-0.28
2022-11-09T00:29:00.094Z,-0.28
2022-11-09T00:30:00.096Z,-0.17
2022-11-09T00:31:00.094Z,0
2022-11-09T00:32:00.087Z,0
2022-11-09T00:33:00.088Z,-0.17
2022-11-09T00:34:00.087Z,-0.17
2022-11-09T00:35:00.119Z,-0.17
2022-11-09T00:36:00.106Z,-0.56
2022-11-09T00:37:00.099Z,-0.39
2022-11-09T00:38:00.184Z,-0.56
2022-11-09T00:39:00.101Z,-0.56
2022-11-09T00:40:00.085Z,-0.83
2022-11-09T00:41:00.092Z,-0.83
2022-11-09T00:42:00.102Z,-0.83
2022-11-09T00:43:00.108Z,-1.44
2022-11-09T00:44:00.107Z,-1.11
2022-11-09T00:45:00.138Z,-1.11
2022-11-09T00:46:00.102Z,-1.11
2022-11-09T00:47:00.102Z,-1.28
2022-11-09T00:48:00.123Z,-0.83
2022-11-09T00:49:00.092Z,-1
2022-11-09T00:50:00.112Z,-0.83
2022-11-09T00:51:00.097Z,-0.39
2022-11-09T00:52:00.121Z,-0.17
2022-11-09T00:53:00.104Z,0.17
2022-11-09T00:54:00.106Z,0.28
2022-11-09T00:55:00.103Z,-0.17
2022-11-09T00:56:00.106Z,-0.17
2022-11-09T00:57:00.095Z,0
2022-11-09T00:58:00.103Z,0
2022-11-09T00:59:00.104Z,0
2022-11-09T01:00:00.128Z,0.17
2022-11-09T01:01:00.190Z,0.17
2022-11-09T01:02:00.099Z,0
2022-11-09T01:03:00.094Z,0.44
2022-11-09T01:04:00.094Z,0.17
2022-11-09T01:05:00.173Z,0
2022-11-09T01:06:00.116Z,0.17
2022-11-09T01:07:00.216Z,0.17
2022-11-09T01:08:00.126Z,-0.56
2022-11-09T01:09:00.108Z,-1
2022-11-09T01:10:00.094Z,-1
2022-11-09T01:11:00.108Z,-0.83
2022-11-09T01:12:00.105Z,-0.83
2022-11-09T01:13:00.112Z,-0.83
2022-11-09T01:14:00.102Z,-1
2022-11-09T01:15:00.104Z,-0.67
2022-11-09T01:16:00.105Z,-0.56
2022-11-09T01:17:00.140Z,-0.67
2022-11-09T01:18:00.112Z,-0.39
2022-11-09T01:19:00.111Z,-0.28
2022-11-09T01:20:00.165Z,-0.39
2022-11-09T01:21:00.102Z,-0.39
2022-11-09T01:22:00.114Z,-0.28
2022-11-09T01:23:00.101Z,0
2022-11-09T01:24:00.129Z,0.17
2022-11-09T01:25:00.104Z,0.17
2022-11-09T01:26:00.111Z,0
2022-11-09T01:27:00.105Z,0.17
2022-11-09T01:28:00.108Z,0
2022-11-09T01:29:00.119Z,-0.28
2022-11-09T01:30:00.114Z,-0.17
2022-11-09T01:31:00.111Z,-0.67
2022-11-09T01:32:00.114Z,-0.39
2022-11-09T01:33:00.116Z,-0.39
2022-11-09T01:34:00.108Z,-0.28
2022-11-09T01:35:00.112Z,-0.56
2022-11-09T01:36:00.113Z,-0.39
2022-11-09T01:37:00.109Z,-0.28
2022-11-09T01:38:00.104Z,-0.28
2022-11-09T01:39:00.113Z,-0.17
2022-11-09T01:40:00.160Z,-0.39
2022-11-09T01:41:00.102Z,-0.67
2022-11-09T01:42:00.109Z,-0.39
2022-11-09T01:43:00.117Z,-0.39
2022-11-09T01:44:00.115Z,-0.28
2022-11-09T01:45:00.125Z,-0.28
2022-11-09T01:46:00.113Z,-0.39
2022-11-09T01:47:00.138Z,-0.56
2022-11-09T01:48:00.145Z,-0.67
2022-11-09T01:49:00.117Z,-0.83
2022-11-09T01:50:00.170Z,-0.56
2022-11-09T01:51:00.121Z,-0.67
2022-11-09T01:52:00.112Z,-0.67
2022-11-09T01:53:00.130Z,-0.83
2022-11-09T01:54:00.112Z,-0.83
2022-11-09T01:55:00.134Z,-0.83
2022-11-09T01:56:00.150Z,-0.83
2022-11-09T01:57:00.121Z,-0.83
2022-11-09T01:58:00.128Z,-0.83
2022-11-09T01:59:00.121Z,-0.67
2022-11-09T02:00:00.142Z,-0.83
2022-11-09T02:01:00.206Z,-1
2022-11-09T02:02:00.129Z,-0.67
2022-11-09T02:03:00.127Z,-0.83
2022-11-09T02:04:00.140Z,-1
2022-11-09T02:05:00.128Z,-0.67
2022-11-09T02:06:00.132Z,-0.39
2022-11-09T02:07:00.259Z,-0.83
2022-11-09T02:08:00.127Z,-0.67
2022-11-09T02:09:00.122Z,-0.67
2022-11-09T02:10:00.147Z,-0.39
2022-11-09T02:11:00.125Z,-0.67
2022-11-09T02:12:00.154Z,-0.39
2022-11-09T02:13:00.132Z,-0.56
2022-11-09T02:14:00.131Z,-0.56
2022-11-09T02:15:00.129Z,-0.39
2022-11-09T02:16:00.129Z,-0.39
2022-11-09T02:17:00.127Z,-0.56
2022-11-09T02:18:00.133Z,-0.39
2022-11-09T02:19:00.130Z,-0.39
2022-11-09T02:20:00.187Z,-0.56
2022-11-09T02:21:00.120Z,-0.67
2022-11-09T02:22:00.155Z,-0.83
2022-11-09T02:23:00.132Z,-0.39
2022-11-09T02:24:00.147Z,-0.39
2022-11-09T02:25:00.129Z,-0.67
2022-11-09T02:26:00.127Z,-0.83
2022-11-09T02:27:00.131Z,-0.56
2022-11-09T02:28:00.272Z,-1
2022-11-09T02:29:00.130Z,-0.83
2022-11-09T02:30:00.171Z,-0.83
2022-11-09T02:31:00.155Z,-0.67
2022-11-09T02:32:00.137Z,-0.56
2022-11-09T02:33:00.130Z,-0.67
2022-11-09T02:34:00.131Z,-1
2022-11-09T02:35:00.131Z,-0.56
2022-11-09T02:36:00.145Z,-0.56
2022-11-09T02:37:00.131Z,-0.67
2022-11-09T02:38:00.132Z,-0.83
2022-11-09T02:39:00.138Z,-0.39
2022-11-09T02:40:00.150Z,-0.39
2022-11-09T02:41:00.132Z,-0.56
2022-11-09T02:42:02.849Z,-0.67
2022-11-09T02:43:00.140Z,-0.67
2022-11-09T02:44:00.165Z,-0.39
2022-11-09T02:45:00.147Z,-1.28
2022-11-09T02:46:00.141Z,-0.67
2022-11-09T02:47:00.136Z,-0.67
2022-11-09T02:48:00.163Z,-0.39
2022-11-09T02:49:00.136Z,-0.67
2022-11-09T02:50:00.144Z,-0.39
2022-11-09T02:51:00.139Z,-0.39
2022-11-09T02:52:00.156Z,-0.39
2022-11-09T02:53:00.140Z,-0.39
2022-11-09T02:54:00.142Z,-0.39
2022-11-09T02:55:00.140Z,-0.28
2022-11-09T02:56:00.138Z,-0.28
2022-11-09T02:57:00.142Z,-0.17
2022-11-09T02:58:00.145Z,-0.28
2022-11-09T02:59:00.137Z,-0.39
2022-11-09T03:00:00.192Z,-0.17
2022-11-09T03:01:00.221Z,-0.28
2022-11-09T03:02:00.141Z,-0.17
2022-11-09T03:03:00.137Z,0
2022-11-09T03:04:00.139Z,0
2022-11-09T03:05:00.148Z,0
2022-11-09T03:06:00.138Z,-0.17
2022-11-09T03:07:00.285Z,0
2022-11-09T03:08:00.143Z,0
2022-11-09T03:09:00.132Z,-0.17
2022-11-09T03:10:00.145Z,-0.17
2022-11-09T03:11:00.136Z,0
2022-11-09T03:12:00.151Z,0
2022-11-09T03:13:00.138Z,0
2022-11-09T03:14:00.146Z,-0.28
2022-11-09T03:15:00.143Z,0
2022-11-09T03:16:00.170Z,-0.28
2022-11-09T03:17:00.142Z,-0.17
2022-11-09T03:18:00.139Z,-0.17
2022-11-09T03:19:00.150Z,0
2022-11-09T03:20:00.145Z,-0.17
2022-11-09T03:21:00.141Z,0
2022-11-09T03:22:00.141Z,0
2022-11-09T03:23:00.161Z,-0.17
2022-11-09T03:24:00.147Z,0.17
2022-11-09T03:25:00.163Z,0.28
2022-11-09T03:26:00.136Z,0
2022-11-09T03:27:00.145Z,-0.17
2022-11-09T03:28:00.165Z,-0.17
2022-11-09T03:29:00.143Z,0
2022-11-09T03:30:00.170Z,-0.28
2022-11-09T03:31:00.149Z,-0.17
2022-11-09T03:32:00.162Z,-0.28
2022-11-09T03:33:00.146Z,-0.17
2022-11-09T03:34:00.134Z,-0.28
2022-11-09T03:35:00.154Z,-0.17
2022-11-09T03:36:00.144Z,-0.17
2022-11-09T03:37:00.153Z,-0.17
2022-11-09T03:38:00.248Z,-0.17
2022-11-09T03:39:00.144Z,-0.17
2022-11-09T03:40:00.190Z,0
2022-11-09T03:41:00.150Z,-0.17
2022-11-09T03:42:00.151Z,-0.17
2022-11-09T03:43:00.150Z,0
2022-11-09T03:44:00.173Z,0.17
2022-11-09T03:45:00.148Z,-0.17
2022-11-09T03:46:00.146Z,0
2022-11-09T03:47:00.153Z,-0.17
2022-11-09T03:48:00.225Z,-0.17
2022-11-09T03:49:00.158Z,-0.17
2022-11-09T03:50:00.166Z,-0.28
2022-11-09T03:51:00.149Z,-0.28
2022-11-09T03:52:00.148Z,0
2022-11-09T03:53:00.152Z,0
2022-11-09T03:54:00.162Z,-0.28
2022-11-09T03:55:00.158Z,0.17
2022-11-09T03:56:00.160Z,-0.28
2022-11-09T03:57:00.153Z,-0.17
2022-11-09T03:58:00.157Z,0
2022-11-09T03:59:00.153Z,-0.39
2022-11-09T04:00:00.183Z,0.17
2022-11-09T04:01:00.157Z,0
2022-11-09T04:02:00.243Z,-0.56
2022-11-09T04:03:00.161Z,-0.28
2022-11-09T04:04:00.191Z,-0.17
2022-11-09T04:05:00.175Z,0
2022-11-09T04:06:00.155Z,-0.17
2022-11-09T04:07:00.199Z,0
2022-11-09T04:08:00.161Z,0
2022-11-09T04:09:00.160Z,-0.17
2022-11-09T04:10:00.183Z,0
2022-11-09T04:11:00.156Z,-0.39
2022-11-09T04:12:00.158Z,-0.17
2022-11-09T04:13:00.163Z,-0.17
2022-11-09T04:14:00.163Z,-0.17
2022-11-09T04:15:00.181Z,0
2022-11-09T04:16:00.163Z,0
2022-11-09T04:17:00.160Z,-0.17
2022-11-09T04:18:00.160Z,-0.28
2022-11-09T04:19:00.158Z,0
2022-11-09T04:20:00.202Z,0
2022-11-09T04:21:00.155Z,-0.28
2022-11-09T04:22:00.158Z,-0.17
2022-11-09T04:23:00.160Z,-0.28
2022-11-09T04:24:00.152Z,0.17
2022-11-09T04:25:00.170Z,-0.17
2022-11-09T04:26:00.158Z,0
2022-11-09T04:27:00.157Z,-0.28
2022-11-09T04:28:00.164Z,0
2022-11-09T04:29:00.166Z,-0.17
2022-11-09T04:30:00.191Z,-0.28
2022-11-09T04:31:00.162Z,-0.17
2022-11-09T04:32:00.168Z,-0.17
2022-11-09T04:33:00.170Z,-0.17
2022-11-09T04:34:00.153Z,-0.28
2022-11-09T04:35:00.160Z,-0.39
2022-11-09T04:36:00.240Z,0
2022-11-09T04:37:00.144Z,-0.28
2022-11-09T04:38:00.168Z,-0.17
2022-11-09T04:39:00.153Z,-0.17
2022-11-09T04:40:00.168Z,-0.17
2022-11-09T04:41:00.171Z,-0.17
2022-11-09T04:42:00.161Z,0
2022-11-09T04:43:00.161Z,-0.28
2022-11-09T04:44:00.158Z,-0.28
2022-11-09T04:45:00.159Z,-0.56
2022-11-09T04:46:00.157Z,-0.28
2022-11-09T04:47:00.165Z,0
2022-11-09T04:48:00.155Z,0
2022-11-09T04:49:00.148Z,-0.28
2022-11-09T04:50:00.189Z,-0.17
2022-11-09T04:51:00.163Z,-0.28
2022-11-09T04:52:00.182Z,-0.28
2022-11-09T04:53:02.919Z,-0.28
2022-11-09T04:54:00.167Z,-0.67
2022-11-09T04:55:00.169Z,-0.28
2022-11-09T04:56:00.167Z,-0.28
2022-11-09T04:57:00.172Z,-0.39
2022-11-09T04:58:00.165Z,-0.39
2022-11-09T04:59:00.162Z,-0.39
2022-11-09T05:00:00.185Z,-0.17
2022-11-09T05:01:00.159Z,-0.17
2022-11-09T05:02:00.162Z,-0.28
2022-11-09T05:03:00.160Z,-0.28
2022-11-09T05:04:00.258Z,-0.39
2022-11-09T05:05:00.168Z,-0.17
2022-11-09T05:06:00.163Z,0
2022-11-09T05:07:00.186Z,-0.17
2022-11-09T05:08:00.193Z,-0.17
2022-11-09T05:09:00.176Z,0
2022-11-09T05:10:00.168Z,0
2022-11-09T05:11:00.176Z,-0.28
2022-11-09T05:12:00.172Z,-0.39
2022-11-09T05:13:00.172Z,-0.39
2022-11-09T05:14:00.165Z,-0.39
2022-11-09T05:15:00.176Z,-0.28
2022-11-09T05:16:00.163Z,-0.39
2022-11-09T05:17:00.165Z,-0.39
2022-11-09T05:18:00.170Z,-0.67
2022-11-09T05:19:00.175Z,-0.39
2022-11-09T05:20:00.166Z,-0.28
2022-11-09T05:21:00.169Z,-0.28
2022-11-09T05:22:00.167Z,-0.28
2022-11-09T05:23:00.163Z,-0.28
2022-11-09T05:24:00.376Z,-0.39
2022-11-09T05:25:00.163Z,-0.39
2022-11-09T05:26:00.161Z,-0.39
2022-11-09T05:27:00.180Z,-0.28
2022-11-09T05:28:00.172Z,-0.39
2022-11-09T05:29:00.188Z,-0.67
2022-11-09T05:30:00.178Z,-0.67
2022-11-09T05:31:00.169Z,-0.56
2022-11-09T05:32:00.178Z,-0.28
2022-11-09T05:33:00.158Z,-0.28
2022-11-09T05:34:00.171Z,-0.28
2022-11-09T05:35:00.168Z,0
2022-11-09T05:36:00.161Z,-0.28
2022-11-09T05:37:03.393Z,-0.17
2022-11-09T05:38:00.170Z,-0.28
2022-11-09T05:39:00.174Z,-0.28
2022-11-09T05:40:00.306Z,-0.28
2022-11-09T05:41:00.172Z,-0.39
2022-11-09T05:42:00.162Z,-0.39
2022-11-09T05:43:00.171Z,-0.17
2022-11-09T05:44:00.166Z,-0.39
2022-11-09T05:45:15.257Z,-0.39
2022-11-09T05:46:03.861Z,-0.67
2022-11-09T05:47:00.168Z,-0.28
2022-11-09T05:48:00.170Z,-0.39
2022-11-09T05:49:00.172Z,-0.56
2022-11-09T05:50:00.172Z,-0.56
2022-11-09T05:51:00.171Z,-0.39
2022-11-09T05:52:00.166Z,-0.39
2022-11-09T05:53:00.179Z,-0.39
2022-11-09T05:54:00.189Z,-0.39
2022-11-09T05:55:00.193Z,-0.39
2022-11-09T05:56:00.312Z,-0.39
2022-11-09T05:57:00.178Z,-0.67
2022-11-09T05:58:00.182Z,-0.28
2022-11-09T05:59:00.164Z,-0.39
2022-11-09T06:00:00.184Z,-0.56
2022-11-09T06:01:00.172Z,-0.39
2022-11-09T06:02:00.286Z,-0.67
2022-11-09T06:03:00.179Z,-0.39
2022-11-09T06:04:00.171Z,-0.39
2022-11-09T06:05:00.173Z,-0.39
2022-11-09T06:06:03.888Z,-0.28
2022-11-09T06:07:00.236Z,-0.17
2022-11-09T06:08:00.174Z,-0.28
2022-11-09T06:09:00.168Z,-0.39
2022-11-09T06:10:00.186Z,0
2022-11-09T06:11:00.180Z,-0.28
2022-11-09T06:12:00.202Z,-0.28
2022-11-09T06:13:00.182Z,-0.28
2022-11-09T06:14:00.169Z,-0.56
2022-11-09T06:15:00.180Z,-0.67
2022-11-09T06:16:00.174Z,-0.39
2022-11-09T06:17:00.173Z,-0.67
2022-11-09T06:18:00.173Z,-0.39
2022-11-09T06:19:00.175Z,-0.67
2022-11-09T06:20:00.179Z,-0.83
2022-11-09T06:21:00.175Z,-0.39
2022-11-09T06:22:00.172Z,-0.39
2022-11-09T06:23:03.338Z,-0.28
2022-11-09T06:24:00.176Z,-0.39
2022-11-09T06:25:00.170Z,-0.39
2022-11-09T06:26:00.183Z,-0.39
2022-11-09T06:27:00.171Z,-0.39
2022-11-09T06:28:00.195Z,-0.39
2022-11-09T06:29:00.174Z,-0.56
2022-11-09T06:30:00.192Z,-0.39
2022-11-09T06:31:00.176Z,-1
2022-11-09T06:32:00.197Z,-0.39
2022-11-09T06:33:00.186Z,-0.39
2022-11-09T06:34:00.168Z,-0.39
2022-11-09T06:35:00.175Z,-0.39
2022-11-09T06:36:00.179Z,-0.56
2022-11-09T06:37:00.172Z,-0.56
2022-11-09T06:38:00.210Z,-0.39
2022-11-09T06:39:00.178Z,-1
2022-11-09T06:40:00.180Z,-0.39
2022-11-09T06:41:00.171Z,-0.39
2022-11-09T06:42:00.179Z,-0.67
2022-11-09T06:43:00.194Z,-0.39
2022-11-09T06:44:00.202Z,-0.56
2022-11-09T06:45:00.177Z,-0.39
2022-11-09T06:46:00.178Z,-0.67
2022-11-09T06:47:00.174Z,-0.56
2022-11-09T06:48:00.180Z,-0.39
2022-11-09T06:49:00.175Z,-0.39
2022-11-09T06:50:00.230Z,-0.39
2022-11-09T06:51:00.174Z,-0.56
2022-11-09T06:52:00.182Z,-0.56
2022-11-09T06:53:00.184Z,-0.39
2022-11-09T06:54:00.172Z,-0.67
2022-11-09T06:55:00.185Z,-0.39
2022-11-09T06:56:00.184Z,-0.39
2022-11-09T06:57:00.171Z,-0.56
2022-11-09T06:58:00.174Z,-0.67
2022-11-09T06:59:00.179Z,-0.39
2022-11-09T07:00:00.250Z,-0.39
2022-11-09T07:01:00.253Z,-0.83
2022-11-09T07:02:01.545Z,-0.39
2022-11-09T07:03:00.179Z,-0.39
2022-11-09T07:04:00.177Z,-0.39
2022-11-09T07:05:00.176Z,-0.28
2022-11-09T07:06:00.190Z,-0.39
2022-11-09T07:07:00.304Z,-0.39
2022-11-09T07:08:00.180Z,-0.39
2022-11-09T07:09:00.177Z,-0.67
2022-11-09T07:10:00.182Z,-0.39
2022-11-09T07:11:00.182Z,-0.56
2022-11-09T07:12:00.188Z,-0.39
2022-11-09T07:13:00.176Z,-0.56
2022-11-09T07:14:00.173Z,-0.56
2022-11-09T07:15:00.182Z,-0.83
2022-11-09T07:16:00.202Z,-0.56
2022-11-09T07:17:00.180Z,-0.56
2022-11-09T07:18:00.190Z,-0.67
2022-11-09T07:19:00.177Z,-0.67
2022-11-09T07:20:00.205Z,-0.67
2022-11-09T07:21:00.180Z,-0.83
2022-11-09T07:22:00.178Z,-0.39
2022-11-09T07:23:00.182Z,-0.56
2022-11-09T07:24:00.175Z,-0.67
2022-11-09T07:25:00.183Z,-1
2022-11-09T07:26:00.181Z,-0.56
2022-11-09T07:27:00.191Z,-0.83
2022-11-09T07:28:00.181Z,-1
2022-11-09T07:29:00.181Z,-0.56
2022-11-09T07:30:00.201Z,-0.67
2022-11-09T07:31:00.183Z,-0.83
2022-11-09T07:32:00.205Z,-0.67
2022-11-09T07:33:09.551Z,-0.83
2022-11-09T07:34:00.173Z,-0.56
2022-11-09T07:35:00.186Z,-0.67
2022-11-09T07:36:00.177Z,-0.39
2022-11-09T07:37:00.171Z,-0.39
2022-11-09T07:38:00.181Z,-0.39
2022-11-09T07:39:00.180Z,-0.39
2022-11-09T07:40:00.177Z,-0.56
2022-11-09T07:41:00.192Z,-0.56
2022-11-09T07:42:00.181Z,-0.39
2022-11-09T07:43:00.184Z,-0.28
2022-11-09T07:44:00.189Z,-0.39
2022-11-09T07:45:00.182Z,-0.39
2022-11-09T07:46:00.176Z,-0.83
2022-11-09T07:47:00.178Z,-0.39
2022-11-09T07:48:00.194Z,-0.56
2022-11-09T07:49:00.191Z,-0.39
2022-11-09T07:50:00.187Z,-0.39
2022-11-09T07:51:00.183Z,-0.39
2022-11-09T07:52:00.181Z,-0.56
2022-11-09T07:53:00.180Z,-0.28
2022-11-09T07:54:00.180Z,-0.39
2022-11-09T07:55:00.187Z,-0.39
2022-11-09T07:56:00.188Z,-0.83
2022-11-09T07:57:00.187Z,-0.39
2022-11-09T07:58:00.184Z,-0.28
2022-11-09T07:59:00.180Z,-0.56
2022-11-09T08:00:00.233Z,-0.28
2022-11-09T08:01:00.183Z,-0.28
2022-11-09T08:02:00.272Z,-0.39
2022-11-09T08:03:00.182Z,-0.67
2022-11-09T08:04:00.200Z,-0.39
2022-11-09T08:05:00.186Z,-0.56
2022-11-09T08:06:00.176Z,-0.39
2022-11-09T08:07:00.322Z,-0.39
2022-11-09T08:08:00.203Z,-0.67
2022-11-09T08:09:00.178Z,-0.28
2022-11-09T08:10:00.199Z,-0.67
2022-11-09T08:11:00.185Z,-0.67
2022-11-09T08:12:00.187Z,-1
2022-11-09T08:13:00.190Z,-0.56
2022-11-09T08:14:00.187Z,-0.83
2022-11-09T08:15:00.183Z,-0.67
2022-11-09T08:16:00.188Z,-0.56
2022-11-09T08:17:00.184Z,-0.83
2022-11-09T08:18:00.192Z,-0.56
2022-11-09T08:19:00.184Z,-0.39
2022-11-09T08:20:00.331Z,-0.83
2022-11-09T08:21:00.188Z,-0.67
2022-11-09T08:22:00.192Z,-0.67
2022-11-09T08:23:03.894Z,-0.39
2022-11-09T08:24:00.228Z,-0.39
2022-11-09T08:25:00.217Z,-0.39
2022-11-09T08:26:00.178Z,-0.39
2022-11-09T08:27:00.182Z,-0.28
2022-11-09T08:28:00.183Z,-0.28
2022-11-09T08:29:00.190Z,-0.56
2022-11-09T08:30:00.213Z,-0.56
2022-11-09T08:31:00.314Z,-0.39
2022-11-09T08:32:00.186Z,-0.28
2022-11-09T08:33:00.179Z,-0.28
2022-11-09T08:34:00.189Z,-0.28
2022-11-09T08:35:00.194Z,-0.17
2022-11-09T08:36:00.209Z,-0.17
2022-11-09T08:37:00.189Z,-0.39
2022-11-09T08:38:00.192Z,-0.28
2022-11-09T08:39:00.185Z,-0.17
2022-11-09T08:40:00.194Z,-0.17
2022-11-09T08:41:00.277Z,0
2022-11-09T08:42:00.192Z,-0.28
2022-11-09T08:43:00.184Z,0.17
2022-11-09T08:44:00.182Z,0.17
2022-11-09T08:45:00.182Z,0
2022-11-09T08:46:00.188Z,0.28
2022-11-09T08:47:00.185Z,0
2022-11-09T08:48:00.184Z,0.28
2022-11-09T08:49:00.177Z,0.61
2022-11-09T08:50:00.191Z,0.89
2022-11-09T08:51:00.190Z,0.89
2022-11-09T08:52:00.223Z,0.72
2022-11-09T08:53:00.191Z,1.06
2022-11-09T08:54:00.185Z,1.17
2022-11-09T08:55:00.190Z,1.33
2022-11-09T08:56:00.195Z,1.33
2022-11-09T08:57:00.186Z,1.06
2022-11-09T08:58:00.187Z,1.33
2022-11-09T08:59:00.188Z,1.5
2022-11-09T09:00:00.237Z,1.33
2022-11-09T09:01:00.189Z,1.61
2022-11-09T09:02:00.244Z,1.06
2022-11-09T09:03:00.189Z,1.72
2022-11-09T09:04:00.184Z,1.89
2022-11-09T09:05:00.197Z,2.28
2022-11-09T09:06:00.189Z,2.17
2022-11-09T09:07:00.395Z,2.72
2022-11-09T09:08:00.208Z,2.61
2022-11-09T09:09:00.192Z,2.17
2022-11-09T09:10:00.198Z,2.61
2022-11-09T09:11:00.266Z,2.28
2022-11-09T09:12:00.186Z,2.61
2022-11-09T09:13:00.191Z,2.17
2022-11-09T09:14:00.179Z,2.17
2022-11-09T09:15:00.192Z,2.61
2022-11-09T09:16:00.197Z,3
2022-11-09T09:17:00.187Z,3.17
2022-11-09T09:18:00.191Z,2.44
2022-11-09T09:19:00.193Z,2.61
2022-11-09T09:20:00.194Z,2.89
2022-11-09T09:21:00.195Z,2.61
2022-11-09T09:22:00.192Z,2.17
2022-11-09T09:23:00.205Z,2
2022-11-09T09:24:00.216Z,2.17
2022-11-09T09:25:00.185Z,2.61
2022-11-09T09:26:00.195Z,2
2022-11-09T09:27:00.187Z,1.72
2022-11-09T09:28:00.194Z,2.17
2022-11-09T09:29:00.190Z,2.17
2022-11-09T09:30:00.187Z,2.17
2022-11-09T09:31:00.185Z,2.17
2022-11-09T09:32:00.205Z,2.28
2022-11-09T09:33:00.191Z,2.44
2022-11-09T09:34:00.196Z,2.17
2022-11-09T09:35:00.196Z,2.28
2022-11-09T09:36:00.200Z,2.17
2022-11-09T09:37:00.182Z,2.44
2022-11-09T09:38:00.197Z,2.44
2022-11-09T09:39:00.188Z,2.17
2022-11-09T09:40:00.214Z,2.28
2022-11-09T09:41:00.197Z,2.61
2022-11-09T09:42:00.192Z,3
2022-11-09T09:43:00.194Z,3.33
2022-11-09T09:44:00.191Z,3.44
2022-11-09T09:45:00.195Z,2.72
2022-11-09T09:46:00.200Z,3
2022-11-09T09:47:00.197Z,3
2022-11-09T09:48:00.196Z,2.89
2022-11-09T09:49:00.194Z,3.72
2022-11-09T09:50:00.310Z,3.83
2022-11-09T09:51:00.215Z,3.56
2022-11-09T09:52:00.202Z,4.17
2022-11-09T09:53:22.504Z,4.17
2022-11-09T09:54:00.191Z,4.28
2022-11-09T09:55:00.200Z,4.56
2022-11-09T09:56:00.218Z,4.44
2022-11-09T09:57:00.191Z,4.44
2022-11-09T09:58:00.186Z,4
2022-11-09T09:59:00.198Z,3.72
2022-11-09T10:00:00.191Z,4
2022-11-09T10:01:00.200Z,4.17
2022-11-09T10:02:00.199Z,3.83
2022-11-09T10:03:00.199Z,3.83
2022-11-09T10:04:00.285Z,3.56
2022-11-09T10:05:00.260Z,3.83
2022-11-09T10:06:00.188Z,3.72
2022-11-09T10:07:00.258Z,4
2022-11-09T10:08:00.190Z,4.17
2022-11-09T10:09:00.197Z,4.44
2022-11-09T10:10:00.207Z,4.44
2022-11-09T10:11:00.205Z,4.44
2022-11-09T10:12:01.366Z,4.17
2022-11-09T10:13:00.191Z,4.28
2022-11-09T10:14:00.195Z,4.28
2022-11-09T10:15:00.193Z,4.44
2022-11-09T10:16:00.209Z,4.56
2022-11-09T10:17:00.195Z,4.72
2022-11-09T10:18:00.196Z,4.28
2022-11-09T10:19:00.196Z,5.33
2022-11-09T10:20:00.187Z,5.44
2022-11-09T10:21:00.189Z,5.44
2022-11-09T10:22:00.196Z,5.44
2022-11-09T10:23:00.194Z,6
2022-11-09T10:24:00.192Z,6
2022-11-09T10:26:04.756Z,5.44
2022-11-09T10:27:00.195Z,5.61
2022-11-09T10:28:00.330Z,5.17
2022-11-09T10:29:16.982Z,5.17
2022-11-09T10:30:00.197Z,5.39
2022-11-09T10:31:00.191Z,5.61
2022-11-09T10:32:00.212Z,5.44
2022-11-09T10:33:00.195Z,5.17
2022-11-09T10:34:00.195Z,5.67
2022-11-09T10:35:00.206Z,5
2022-11-09T10:36:03.912Z,6
2022-11-09T10:37:00.204Z,6.11
2022-11-09T10:38:00.199Z,5.67
2022-11-09T10:39:00.196Z,5.5
2022-11-09T10:40:00.193Z,6.28
2022-11-09T10:41:00.185Z,6.72
2022-11-09T10:42:00.201Z,6.83
2022-11-09T10:43:00.200Z,7.06
2022-11-09T10:44:00.212Z,7
2022-11-09T10:45:00.201Z,6.83
2022-11-09T10:46:00.183Z,6.83
2022-11-09T10:47:00.195Z,6.94
2022-11-09T10:48:00.199Z,6.94
2022-11-09T10:49:00.197Z,7.11
2022-11-09T10:50:00.190Z,6.78
2022-11-09T10:51:00.194Z,6.67
2022-11-09T10:52:00.193Z,6.78
2022-11-09T10:53:00.192Z,6.67
2022-11-09T10:54:00.197Z,6.67
2022-11-09T10:55:00.224Z,6.39
2022-11-09T10:56:00.190Z,6.06
2022-11-09T10:57:05.802Z,6.39
2022-11-09T10:58:00.202Z,6.78
2022-11-09T10:59:00.207Z,7.22
2022-11-09T11:00:00.224Z,7.11
2022-11-09T11:01:00.198Z,7.11
2022-11-09T11:02:02.298Z,7.11
2022-11-09T11:03:00.196Z,7.39
2022-11-09T11:04:00.248Z,7.39
2022-11-09T11:05:00.198Z,7.39
2022-11-09T11:06:00.210Z,7.78
2022-11-09T11:07:00.264Z,7.39
2022-11-09T11:08:00.191Z,7.39
2022-11-09T11:09:00.192Z,7.11
2022-11-09T11:10:00.201Z,7.39
2022-11-09T11:11:12.963Z,7.67
2022-11-09T11:12:00.214Z,8.11
2022-11-09T11:13:00.193Z,8.28
2022-11-09T11:14:00.213Z,8.28
2022-11-09T11:15:00.198Z,7.5
2022-11-09T11:16:00.219Z,7.94
2022-11-09T11:17:00.192Z,7.94
2022-11-09T11:18:00.212Z,7.67
2022-11-09T11:19:00.198Z,7.94
2022-11-09T11:20:00.206Z,8.78
2022-11-09T11:21:00.200Z,9.06
2022-11-09T11:22:00.205Z,9.06
2022-11-09T11:23:00.211Z,8.78
2022-11-09T11:24:00.203Z,8.94
2022-11-09T11:25:00.208Z,9.39
2022-11-09T11:26:00.215Z,9.67
2022-11-09T11:27:00.196Z,9.5
2022-11-09T11:28:00.194Z,8.78
2022-11-09T11:29:00.198Z,8.78
2022-11-09T11:30:00.203Z,8.78
2022-11-09T11:31:00.203Z,8.61
2022-11-09T11:32:00.227Z,8.5
2022-11-09T11:33:00.193Z,8.78
2022-11-09T11:34:00.196Z,9.22
2022-11-09T11:35:01.473Z,8.61
2022-11-09T11:36:00.202Z,8.61
2022-11-09T11:37:00.215Z,8.78
2022-11-09T11:38:00.208Z,8.78
2022-11-09T11:39:00.194Z,8.61
2022-11-09T11:40:00.205Z,8.78
2022-11-09T11:41:00.209Z,8.94
2022-11-09T11:42:00.193Z,9.22
2022-11-09T11:43:00.196Z,9.39
2022-11-09T11:44:00.204Z,9.5
2022-11-09T11:45:18.812Z,8.94
2022-11-09T11:46:00.192Z,8.78
2022-11-09T11:47:00.204Z,8.94
2022-11-09T11:48:00.256Z,9.67
2022-11-09T11:49:00.207Z,9.67
2022-11-09T11:50:00.285Z,9.39
2022-11-09T11:51:00.223Z,8.78
2022-11-09T11:52:00.223Z,8.61
2022-11-09T11:53:00.217Z,8.78
2022-11-09T11:54:00.205Z,9.22
2022-11-09T11:55:00.206Z,9.67
2022-11-09T11:56:00.207Z,9.67
2022-11-09T11:57:00.205Z,9.67
2022-11-09T11:58:00.215Z,9.22
2022-11-09T11:59:00.215Z,8.94
2022-11-09T12:00:00.223Z,8.61
2022-11-09T12:01:00.198Z,9.39
2022-11-09T12:02:00.198Z,9.22
2022-11-09T12:03:00.273Z,8.94
2022-11-09T12:04:00.230Z,9.22
2022-11-09T12:05:00.191Z,8.94
2022-11-09T12:06:00.217Z,9.06
2022-11-09T12:07:00.268Z,9.5
2022-11-09T12:08:00.198Z,9.94
2022-11-09T12:09:00.201Z,10.11
2022-11-09T12:10:00.205Z,10.39
2022-11-09T12:11:00.195Z,10.22
2022-11-09T12:12:00.204Z,10.11
2022-11-09T12:13:00.195Z,9.94
2022-11-09T12:14:00.205Z,10.56
2022-11-09T12:15:00.202Z,10.22
2022-11-09T12:16:00.204Z,10.22
2022-11-09T12:17:00.198Z,9.94
2022-11-09T12:18:00.210Z,11.11
2022-11-09T12:19:00.195Z,11
2022-11-09T12:20:00.232Z,11.44
2022-11-09T12:21:00.204Z,11.44
2022-11-09T12:22:00.198Z,11
2022-11-09T12:23:00.196Z,10.67
2022-11-09T12:24:00.206Z,11.11
2022-11-09T12:25:00.216Z,11.28
2022-11-09T12:26:00.203Z,11.72
2022-11-09T12:27:18.244Z,12.28
2022-11-09T12:28:00.207Z,12.28
2022-11-09T12:29:00.219Z,12.44
2022-11-09T12:30:00.201Z,12.11
2022-11-09T12:31:00.206Z,12.11
2022-11-09T12:32:00.205Z,12.44
2022-11-09T12:33:00.201Z,11.94
2022-11-09T12:34:00.207Z,11.83
2022-11-09T12:35:00.224Z,11.28
2022-11-09T12:36:00.280Z,11.61
2022-11-09T12:37:00.203Z,11.83
2022-11-09T12:38:00.214Z,11.83
2022-11-09T12:39:00.208Z,11.83
2022-11-09T12:40:00.200Z,11.83
2022-11-09T12:41:00.205Z,11.83
2022-11-09T12:42:00.207Z,11.72
2022-11-09T12:43:00.209Z,11.28
2022-11-09T12:44:00.204Z,11.06
2022-11-09T12:45:00.208Z,10.67
2022-11-09T12:46:00.213Z,11.33
2022-11-09T12:47:00.217Z,11.72
2022-11-09T12:48:00.216Z,11.61
2022-11-09T12:49:00.201Z,11.61
2022-11-09T12:50:00.205Z,11.06
2022-11-09T12:51:00.201Z,11.06
2022-11-09T12:52:00.234Z,11.17
2022-11-09T12:53:00.251Z,11.61
2022-11-09T12:54:00.219Z,11.89
2022-11-09T12:55:00.211Z,12
2022-11-09T12:56:00.212Z,11.89
2022-11-09T12:57:00.217Z,11.89
2022-11-09T12:58:01.019Z,11.78
2022-11-09T12:59:00.214Z,11.89
2022-11-09T13:00:00.254Z,12.17
2022-11-09T13:01:00.215Z,12
2022-11-09T13:02:00.296Z,12
2022-11-09T13:03:00.205Z,12.17
2022-11-09T13:04:00.209Z,12.5
2022-11-09T13:05:00.210Z,12.94
2022-11-09T13:06:02.537Z,12.94
2022-11-09T13:07:00.307Z,12.5
2022-11-09T13:08:00.226Z,12.5
2022-11-09T13:09:00.206Z,12
2022-11-09T13:10:00.214Z,12.28
2022-11-09T13:11:00.206Z,12.5